Time;durP1;ratioP1;P1;durP2;ratioP2;P2;SDS_P1;SDS_P2;PMS_P1;PMS_P2;Temp;Humidity;BMP_temperature;BMP_pressure;BME280_temperature;BME280_humidity;BME280_pressure;Samples;Min_cycle;Max_cycle;Signal;HPM_P1;HPM_P2
2021/03/18 00:00:06;;;;;;;0.37;0.20;;;;;;;;;;5031402;28;20965;-69
2021/03/18 00:02:33;;;;;;;0.80;0.10;;;;;;;;;;5021854;28;20407;-68
2021/03/18 00:04:59;;;;;;;0.50;0.15;;;;;;;;;;5032518;28;20415;-69
2021/03/18 00:07:26;;;;;;;0.20;0.10;;;;;;;;;;5030883;28;20524;-69
2021/03/18 00:09:53;;;;;;;0.55;0.10;;;;;;;;;;5032833;28;20752;-69
2021/03/18 00:12:19;;;;;;;1.00;0.10;;;;;;;;;;5033810;28;20406;-69
2021/03/18 00:14:45;;;;;;;0.50;0.20;;;;;;;;;;5033557;28;20501;-69
2021/03/18 00:17:11;;;;;;;0.55;0.10;;;9.10;35.10;;;;;;5031367;28;20458;-69
2021/03/18 00:19:37;;;;;;;0.28;0.10;;;9.20;35.30;;;;;;5029163;28;20413;-69
2021/03/18 00:22:03;;;;;;;0.77;0.10;;;9.20;36.10;;;;;;5028408;28;20402;-69
2021/03/18 00:24:30;;;;;;;0.68;0.10;;;9.10;36.50;;;;;;5029245;28;20459;-69
2021/03/18 00:26:56;;;;;;;0.35;0.20;;;8.90;37.00;;;;;;5027761;28;20395;-69
2021/03/18 00:29:22;;;;;;;0.47;0.20;;;8.90;37.60;;;;;;5028922;28;20408;-68
2021/03/18 00:31:48;;;;;;;0.30;0.20;;;8.70;37.80;;;;;;5025788;28;20415;-68
2021/03/18 00:34:14;;;;;;;0.90;0.40;;;;;;;;;;5033293;28;20403;-68
2021/03/18 00:36:40;;;;;;;0.95;0.43;;;8.50;38.40;;;;;;5033359;28;20839;-69
2021/03/18 00:39:09;;;;;;;0.60;0.40;;;;;;;;;;5031980;28;20403;-69
2021/03/18 00:41:36;;;;;;;0.90;0.50;;;;;;;;;;5031797;28;20875;-69
2021/03/18 00:44:03;;;;;;;1.63;0.65;;;8.10;42.00;;;;;;5033208;28;20481;-68
2021/03/18 00:46:29;;;;;;;1.40;0.65;;;;;;;;;;5029925;28;20465;-69
2021/03/18 00:48:55;;;;;;;1.40;0.90;;;;;;;;;;5033110;28;20391;-69
2021/03/18 00:51:22;;;;;;;1.23;0.70;;;;;;;;;;5017479;28;20908;-69
2021/03/18 00:53:49;;;;;;;1.53;1.00;;;;;;;;;;5031671;28;20403;-69
2021/03/18 00:56:17;;;;;;;1.40;1.00;;;;;;;;;;5033158;28;20506;-69
2021/03/18 00:58:45;;;;;;;1.60;1.00;;;;;;;;;;5029458;28;20762;-69
2021/03/18 01:01:12;;;;;;;1.50;1.05;;;;;;;;;;5029650;28;20418;-69
2021/03/18 01:03:40;;;;;;;1.48;0.80;;;;;;;;;;5032618;28;20802;-69
2021/03/18 01:06:07;;;;;;;0.80;0.70;;;;;;;;;;5028089;28;20408;-68
2021/03/18 01:08:34;;;;;;;1.05;0.60;;;;;;;;;;5027983;28;20441;-68
2021/03/18 01:11:01;;;;;;;1.20;0.80;;;;;;;;;;5031662;28;20506;-69
2021/03/18 01:13:28;;;;;;;1.58;1.00;;;;;;;;;;5032669;28;20398;-69
2021/03/18 01:15:56;;;;;;;1.27;0.83;;;;;;;;;;5032404;28;20779;-69
2021/03/18 01:18:24;;;;;;;1.33;0.90;;;;;;;;;;5032597;28;20395;-68
2021/03/18 01:20:50;;;;;;;1.85;0.80;;;;;;;;;;5017130;28;20405;-71
2021/03/18 01:23:16;;;;;;;2.58;1.20;;;;;;;;;;5028043;28;20430;-71
2021/03/18 01:25:43;;;;;;;1.42;1.10;;;6.20;87.60;;;;;;5027641;28;20402;-71
2021/03/18 01:28:10;;;;;;;1.25;0.90;;;;;;;;;;5032479;28;20395;-71
2021/03/18 01:30:39;;;;;;;2.00;1.30;;;5.90;50.20;;;;;;5031040;28;20415;-71
2021/03/18 01:33:07;;;;;;;2.83;1.38;;;5.60;51.80;;;;;;5025266;28;20561;-71
2021/03/18 01:35:33;;;;;;;1.90;1.40;;;5.30;51.80;;;;;;5025894;28;20418;-71
2021/03/18 01:37:59;;;;;;;2.00;1.30;;;5.40;66.10;;;;;;5027745;28;20408;-71
2021/03/18 01:40:31;;;;;;;2.95;1.45;;;5.40;65.70;;;;;;5023310;28;20393;-71
2021/03/18 01:42:58;;;;;;;1.67;1.20;;;;;;;;;;5011786;28;20401;-71
2021/03/18 01:45:24;;;;;;;1.40;1.05;;;5.20;54.10;;;;;;5027856;28;20955;-71
2021/03/18 01:47:52;;;;;;;2.65;1.10;;;4.80;55.40;;;;;;5025586;28;20401;-71
2021/03/18 01:50:22;;;;;;;2.05;1.20;;;4.50;56.30;;;;;;5032060;28;20395;-71
2021/03/18 01:52:48;;;;;;;1.80;1.10;;;4.30;56.60;;;;;;5019348;28;20437;-71
2021/03/18 01:55:18;;;;;;;1.75;1.20;;;4.10;57.20;;;;;;5029498;28;20417;-71
2021/03/18 01:57:46;;;;;;;1.50;1.10;;;4.10;57.50;;;;;;5032183;28;20390;-71
2021/03/18 02:00:15;;;;;;;1.48;0.93;;;4.20;57.40;;;;;;5030743;28;20402;-73
2021/03/18 02:02:42;;;;;;;1.80;1.00;;;4.30;57.50;;;;;;5030631;28;20447;-72
2021/03/18 02:05:09;;;;;;;1.70;0.93;;;4.20;57.10;;;;;;5023329;23;20444;-69
2021/03/18 02:07:36;;;;;;;1.70;1.15;;;4.20;56.80;;;;;;5012411;28;20412;-70
2021/03/18 02:10:04;;;;;;;2.90;1.10;;;4.10;58.20;;;;;;5001343;28;20451;-68
2021/03/18 02:12:30;;;;;;;2.55;0.77;;;3.80;58.10;;;;;;5008966;28;20492;-69
2021/03/18 02:14:56;;;;;;;1.63;0.80;;;4.00;56.80;;;;;;5016357;28;20507;-70
2021/03/18 02:17:28;;;;;;;1.77;1.02;;;4.00;57.30;;;;;;5009887;28;20410;-67
2021/03/18 02:20:28;;;;;;;1.10;0.82;;;4.00;57.70;;;;;;5008760;28;20404;-66
2021/03/18 02:23:25;;;;;;;1.42;0.80;;;4.00;58.00;;;;;;5002860;28;20392;-71
2021/03/18 02:26:09;;;;;;;1.00;0.68;;;3.90;57.40;;;;;;5009079;28;20897;-69
2021/03/18 02:28:52;;;;;;;1.20;0.80;;;3.90;58.20;;;;;;5012214;28;20401;-69
2021/03/18 02:31:32;;;;;;;1.52;0.80;;;3.90;57.90;;;;;;5016026;28;20396;-69
2021/03/18 02:34:35;;;;;;;1.93;0.87;;;3.90;58.20;;;;;;5014643;28;20413;-69
2021/03/18 02:37:07;;;;;;;1.50;0.90;;;3.90;58.80;;;;;;5002935;28;20418;-67
2021/03/18 02:39:37;;;;;;;2.70;0.93;;;4.00;58.20;;;;;;5010316;28;20480;-69
2021/03/18 02:42:06;;;;;;;1.10;0.70;;;4.00;58.00;;;;;;5014878;28;20404;-69
2021/03/18 02:44:34;;;;;;;2.58;0.90;;;3.60;59.10;;;;;;5011103;28;20406;-69
2021/03/18 02:47:02;;;;;;;0.93;0.70;;;;;;;;;;5013556;28;20416;-69
2021/03/18 02:49:29;;;;;;;1.02;0.75;;;;;;;;;;5016692;28;20909;-69
2021/03/18 02:51:56;;;;;;;1.15;0.80;;;3.60;59.00;;;;;;5017913;28;20408;-69
2021/03/18 02:54:25;;;;;;;2.22;1.02;;;3.30;61.50;;;;;;5013545;28;20448;-69
2021/03/18 02:56:55;;;;;;;1.58;1.10;;;3.30;61.30;;;;;;5020321;28;20516;-69
2021/03/18 02:59:26;;;;;;;1.38;0.70;;;3.30;61.50;;;;;;5015528;28;20527;-69
2021/03/18 03:01:53;;;;;;;1.30;0.80;;;3.20;61.90;;;;;;5004134;28;20437;-69
2021/03/18 03:04:20;;;;;;;1.48;0.80;;;3.30;62.70;;;;;;5008833;28;20915;-69
2021/03/18 03:06:48;;;;;;;0.77;0.40;;;3.30;61.90;;;;;;5014135;28;20447;-69
2021/03/18 03:09:14;;;;;;;0.60;0.50;;;3.40;59.00;;;;;;5015218;28;20425;-69
2021/03/18 03:11:42;;;;;;;0.73;0.50;;;3.40;58.40;;;;;;5005403;28;20389;-69
2021/03/18 03:14:09;;;;;;;0.95;0.35;;;3.50;58.10;;;;;;4994917;28;20403;-73
2021/03/18 03:16:36;;;;;;;0.77;0.30;;;3.60;57.90;;;;;;5008942;28;20427;-73
2021/03/18 03:19:03;;;;;;;0.55;0.40;;;3.70;56.20;;;;;;5015123;28;20401;-73
2021/03/18 03:21:29;;;;;;;0.83;0.47;;;3.70;56.60;;;;;;5014908;28;20496;-73
2021/03/18 03:23:57;;;;;;;0.88;0.50;;;3.50;57.20;;;;;;5015346;28;20399;-77
2021/03/18 03:26:25;;;;;;;0.63;0.40;;;3.50;57.50;;;;;;5013921;28;20407;-76
2021/03/18 03:28:54;;;;;;;0.70;0.40;;;3.50;57.30;;;;;;5010867;28;20390;-75
2021/03/18 03:31:20;;;;;;;0.28;0.20;;;3.50;57.20;;;;;;5012661;28;20397;-76
2021/03/18 03:33:46;;;;;;;1.48;0.20;;;3.60;54.90;;;;;;5014739;28;20392;-77
2021/03/18 03:36:12;;;;;;;1.60;0.30;;;3.80;54.10;;;;;;5014798;28;20412;-76
2021/03/18 03:38:39;;;;;;;0.40;0.20;;;3.90;54.50;;;;;;5013670;28;20401;-76
2021/03/18 03:41:05;;;;;;;0.32;0.13;;;4.20;53.40;;;;;;5014865;28;20463;-77
2021/03/18 03:43:31;;;;;;;0.70;0.20;;;4.30;52.90;;;;;;5008934;28;20473;-77
2021/03/18 03:45:58;;;;;;;0.30;0.20;;;4.30;53.40;;;;;;5012374;28;20450;-77
2021/03/18 03:48:28;;;;;;;0.63;0.30;;;4.40;51.90;;;;;;5010770;28;20458;-77
2021/03/18 03:50:54;;;;;;;0.40;0.30;;;4.50;52.00;;;;;;5012148;28;20401;-77
2021/03/18 03:53:26;;;;;;;0.28;0.17;;;4.50;52.20;;;;;;5014489;28;20393;-77
2021/03/18 03:55:59;;;;;;;0.57;0.17;;;4.50;51.90;;;;;;5014417;28;20942;-77
2021/03/18 03:58:39;;;;;;;1.10;0.20;;;4.70;51.20;;;;;;5014277;28;20742;-77
2021/03/18 04:01:12;;;;;;;0.40;0.10;;;4.70;51.10;;;;;;5014337;28;20392;-77
2021/03/18 04:03:38;;;;;;;0.40;0.20;;;4.90;50.50;;;;;;5014018;28;20408;-77
2021/03/18 04:06:06;;;;;;;0.30;0.20;;;4.90;50.70;;;;;;5003470;28;20390;-77
2021/03/18 04:08:35;;;;;;;0.40;0.10;;;5.00;49.80;;;;;;5012595;28;20424;-76
2021/03/18 04:11:02;;;;;;;0.40;0.10;;;5.00;50.00;;;;;;5009834;28;20491;-76
2021/03/18 04:13:30;;;;;;;0.10;0.10;;;5.40;53.70;;;;;;5009516;28;20434;-76
2021/03/18 04:15:58;;;;;;;0.30;0.15;;;5.30;48.60;;;;;;5004010;28;20423;-77
2021/03/18 04:18:29;;;;;;;0.10;0.10;;;5.20;49.10;;;;;;5012577;28;20393;-77
2021/03/18 04:20:57;;;;;;;0.70;0.20;;;5.20;49.10;;;;;;5014459;28;20393;-77
2021/03/18 04:23:26;;;;;;;0.40;0.20;;;5.10;49.70;;;;;;4998982;28;20782;-76
2021/03/18 04:25:55;;;;;;;0.30;0.20;;;5.20;49.30;;;;;;5014409;28;20930;-77
2021/03/18 04:28:21;;;;;;;0.50;0.20;;;5.10;49.50;;;;;;5013805;28;20950;-73
2021/03/18 04:30:47;;;;;;;0.98;0.40;;;5.10;49.20;;;;;;5013848;28;20459;-77
2021/03/18 04:33:15;;;;;;;0.30;0.20;;;5.10;49.70;;;;;;5013025;28;20393;-77
2021/03/18 04:35:43;;;;;;;0.38;0.20;;;5.10;49.40;;;;;;5010023;28;20780;-76
2021/03/18 04:38:09;;;;;;;0.60;0.20;;;5.10;49.30;;;;;;5007568;28;20420;-76
2021/03/18 04:40:36;;;;;;;0.70;0.20;;;5.30;48.70;;;;;;5008631;28;20416;-76
2021/03/18 04:43:02;;;;;;;0.30;0.20;;;5.30;49.20;;;;;;5002141;28;20406;-76
2021/03/18 04:45:30;;;;;;;0.70;0.13;;;5.20;48.70;;;;;;5000633;28;20402;-76
2021/03/18 04:47:57;;;;;;;0.83;0.20;;;5.20;48.90;;;;;;5006797;28;20880;-76
2021/03/18 04:50:24;;;;;;;0.70;0.20;;;5.10;49.90;;;;;;5007085;28;20400;-76
2021/03/18 04:52:52;;;;;;;0.73;0.10;;;5.10;48.90;;;;;;5011997;28;20408;-76
2021/03/18 04:55:19;;;;;;;0.38;0.20;;;5.10;49.40;;;;;;5008897;28;20732;-76
2021/03/18 04:57:53;;;;;;;0.35;0.20;;;5.10;49.30;;;;;;5011452;28;20886;-76
2021/03/18 05:00:21;;;;;;;1.40;0.30;;;5.20;48.70;;;;;;5008178;28;20412;-76
2021/03/18 05:02:49;;;;;;;0.30;0.10;;;5.30;49.00;;;;;;5004846;28;20396;-76
2021/03/18 05:05:18;;;;;;;0.10;0.10;;;5.40;47.60;;;;;;5006693;28;20491;-76
2021/03/18 05:07:46;;;;;;;0.63;0.10;;;5.40;48.00;;;;;;5006744;28;20586;-76
2021/03/18 05:10:15;;;;;;;0.32;0.20;;;5.40;48.20;;;;;;5013173;28;20399;-76
2021/03/18 05:12:42;;;;;;;0.30;0.20;;;5.30;48.40;;;;;;5006864;28;20447;-77
2021/03/18 05:15:11;;;;;;;0.47;0.20;;;5.30;49.00;;;;;;5005150;28;20448;-74
2021/03/18 05:17:38;;;;;;;0.50;0.20;;;5.30;48.80;;;;;;5019219;28;20752;-73
2021/03/18 05:20:05;;;;;;;0.22;0.17;;;5.20;49.20;;;;;;5020825;28;20404;-73
2021/03/18 05:22:31;;;;;;;0.20;0.10;;;5.10;49.60;;;;;;5013230;28;20423;-73
2021/03/18 05:24:57;;;;;;;0.40;0.20;;;5.10;49.60;;;;;;5012740;28;20388;-73
2021/03/18 05:27:24;;;;;;;0.20;0.17;;;5.00;49.60;;;;;;5000674;28;20411;-73
2021/03/18 05:29:50;;;;;;;0.73;0.40;;;5.00;49.80;;;;;;5005381;28;20409;-73
2021/03/18 05:32:16;;;;;;;0.73;0.35;;;5.00;49.60;;;;;;5012613;28;20393;-73
2021/03/18 05:34:42;;;;;;;0.60;0.30;;;5.00;49.70;;;;;;5012737;28;20428;-73
2021/03/18 05:37:08;;;;;;;2.55;0.22;;;5.00;49.60;;;;;;5011153;28;20428;-73
2021/03/18 05:39:34;;;;;;;0.47;0.30;;;5.00;49.50;;;;;;5009686;28;20481;-73
2021/03/18 05:42:00;;;;;;;0.40;0.28;;;5.10;50.00;;;;;;5012560;28;20396;-73
2021/03/18 05:44:28;;;;;;;0.60;0.20;;;5.10;50.00;;;;;;5006376;28;20444;-73
2021/03/18 05:46:55;;;;;;;0.80;0.20;;;5.10;50.00;;;;;;5012195;28;20484;-73
2021/03/18 05:49:22;;;;;;;0.50;0.20;;;5.20;48.90;;;;;;5012514;28;20404;-73
2021/03/18 05:51:50;;;;;;;1.40;0.50;;;5.20;49.20;;;;;;5005552;28;20393;-73
2021/03/18 05:54:20;;;;;;;0.70;0.30;;;5.40;48.10;;;;;;5012365;28;20392;-73
2021/03/18 05:56:48;;;;;;;0.30;0.20;;;5.50;47.80;;;;;;5010479;28;20411;-73
2021/03/18 05:59:16;;;;;;;0.52;0.20;;;5.60;47.40;;;;;;5011091;28;20412;-73
2021/03/18 06:01:43;;;;;;;1.65;0.30;;;5.60;47.80;;;;;;5006048;28;20497;-73
2021/03/18 06:04:09;;;;;;;1.38;0.40;;;5.50;48.10;;;;;;5007663;28;20408;-73
2021/03/18 06:06:37;;;;;;;0.88;0.30;;;5.50;48.10;;;;;;5004604;28;20398;-73
2021/03/18 06:09:05;;;;;;;1.10;0.20;;;5.50;48.60;;;;;;5002084;28;20970;-73
2021/03/18 06:11:32;;;;;;;1.17;0.40;;;5.50;48.50;;;;;;5010671;28;20393;-73
2021/03/18 06:13:58;;;;;;;1.30;0.40;;;5.40;48.40;;;;;;4996191;28;20409;-73
2021/03/18 06:16:25;;;;;;;0.50;0.30;;;5.40;48.20;;;;;;5011553;28;20416;-73
2021/03/18 06:18:52;;;;;;;0.60;0.38;;;5.70;47.20;;;;;;5009722;28;20389;-73
2021/03/18 06:21:18;;;;;;;2.00;0.50;;;5.60;48.00;;;;;;5009983;28;20404;-73
2021/03/18 06:23:58;;;;;;;0.75;0.30;;;5.60;48.70;;;;;;5011045;28;20400;-73
2021/03/18 06:26:33;;;;;;;0.28;0.20;;;5.60;48.00;;;;;;5006115;28;20442;-73
2021/03/18 06:28:59;;;;;;;0.90;0.40;;;5.70;48.00;;;;;;5009500;28;20892;-73
2021/03/18 06:31:28;;;;;;;0.82;0.40;;;5.60;48.10;;;;;;5011694;28;20395;-73
2021/03/18 06:33:55;;;;;;;0.60;0.40;;;5.60;48.00;;;;;;5015638;28;20394;-73
2021/03/18 06:36:23;;;;;;;0.70;0.40;;;5.60;48.20;;;;;;5012088;28;20832;-73
2021/03/18 06:39:00;;;;;;;0.70;0.40;;;5.50;49.10;;;;;;5007143;28;20401;-73
2021/03/18 06:41:30;;;;;;;1.23;0.70;;;5.60;48.90;;;;;;5005727;28;20405;-73
2021/03/18 06:43:56;;;;;;;1.48;0.60;;;5.50;49.50;;;;;;5020351;28;20402;-73
2021/03/18 06:46:23;;;;;;;0.60;0.40;;;5.60;49.90;;;;;;5001099;28;20398;-73
2021/03/18 06:48:50;;;;;;;1.10;0.50;;;5.60;49.10;;;;;;5011070;28;20411;-73
2021/03/18 06:51:20;;;;;;;1.52;0.77;;;5.60;49.00;;;;;;5008384;28;20401;-73
2021/03/18 06:53:46;;;;;;;1.00;0.50;;;5.60;48.80;;;;;;5006751;28;20972;-73
2021/03/18 06:56:23;;;;;;;1.20;0.80;;;5.70;48.60;;;;;;5010200;28;20409;-73
2021/03/18 06:58:50;;;;;;;1.73;0.95;;;5.80;48.40;;;;;;5013121;28;20416;-73
2021/03/18 07:01:22;;;;;;;1.60;0.80;;;5.90;77.60;;;;;;5028891;28;20935;-73
2021/03/18 07:03:47;;;;;;;1.25;0.75;;;6.00;48.80;;;;;;5014273;28;20970;-73
2021/03/18 07:06:28;;;;;;;1.15;0.70;;;6.20;48.40;;;;;;5013018;28;20401;-73
2021/03/18 07:09:01;;;;;;;2.08;0.60;;;;;;;;;;5006573;28;20476;-73
2021/03/18 07:11:27;;;;;;;1.42;0.70;;;6.50;45.80;;;;;;5004885;28;20415;-73
2021/03/18 07:13:53;;;;;;;1.08;0.60;;;6.50;47.90;;;;;;5014659;28;20476;-73
2021/03/18 07:16:20;;;;;;;1.67;0.80;;;6.40;47.40;;;;;;5009333;28;20421;-73
2021/03/18 07:18:56;;;;;;;1.27;0.80;;;6.50;47.60;;;;;;5014087;28;20392;-73
2021/03/18 07:21:34;;;;;;;1.80;0.80;;;6.60;48.50;;;;;;5012829;28;20513;-73
2021/03/18 07:24:03;;;;;;;1.25;0.50;;;6.70;48.40;;;;;;5010105;28;20441;-74
2021/03/18 07:26:29;;;;;;;2.40;1.10;;;6.90;47.90;;;;;;5017648;28;20397;-73
2021/03/18 07:29:13;;;;;;;1.70;1.15;;;6.90;47.10;;;;;;5020854;28;20895;-74
2021/03/18 07:31:40;;;;;;;1.60;0.60;;;7.00;47.70;;;;;;5017065;28;20407;-73
2021/03/18 07:34:06;;;;;;;1.25;0.50;;;7.00;47.00;;;;;;5019660;28;20481;-73
2021/03/18 07:36:33;;;;;;;1.88;0.60;;;7.10;46.30;;;;;;5021216;28;20433;-73
2021/03/18 07:38:59;;;;;;;1.02;0.57;;;7.20;45.40;;;;;;5020927;28;20407;-73
2021/03/18 07:41:26;;;;;;;0.90;0.40;;;7.40;45.30;;;;;;5019514;28;20401;-73
2021/03/18 07:43:53;;;;;;;1.40;0.60;;;7.50;44.80;;;;;;5019948;28;20421;-73
2021/03/18 07:46:20;;;;;;;0.73;0.43;;;7.80;44.30;;;;;;5016937;28;20395;-73
2021/03/18 07:48:54;;;;;;;2.10;1.10;;;7.90;44.80;;;;;;5019794;28;20482;-72
2021/03/18 07:51:20;;;;;;;2.53;1.48;;;7.90;44.10;;;;;;5019643;28;20762;-74
2021/03/18 07:53:49;;;;;;;2.45;1.30;;;7.80;46.10;;;;;;5017057;28;20403;-74
2021/03/18 07:56:16;;;;;;;2.77;1.23;;;7.80;46.30;;;;;;5020878;28;20420;-74
2021/03/18 07:58:43;;;;;;;3.45;2.92;;;7.90;47.90;;;;;;5022209;28;20955;-72
2021/03/18 08:01:36;;;;;;;3.47;3.17;;;8.00;47.70;;;;;;5021643;28;20397;-73
2021/03/18 08:04:04;;;;;;;2.80;1.40;;;8.10;48.00;;;;;;5018242;28;20949;-73
2021/03/18 08:06:47;;;;;;;2.50;1.50;;;8.10;48.10;;;;;;5019521;28;20410;-73
2021/03/18 08:09:16;;;;;;;3.22;2.47;;;8.00;47.20;;;;;;5017212;28;20658;-73
2021/03/18 08:11:44;;;;;;;2.17;1.30;;;7.90;48.90;;;;;;5017143;28;20420;-71
2021/03/18 08:14:11;;;;;;;2.53;1.80;;;7.80;48.60;;;;;;5019215;28;20424;-73
2021/03/18 08:16:38;;;;;;;2.58;1.50;;;;;;;;;;5018857;28;20426;-73
2021/03/18 08:19:05;;;;;;;2.25;1.52;;;8.10;51.20;;;;;;5021047;28;20405;-73
2021/03/18 08:21:36;;;;;;;2.45;1.38;;;8.60;50.50;;;;;;5019394;28;20437;-73
2021/03/18 08:24:04;;;;;;;2.65;1.42;;;;;;;;;;5019241;28;20401;-73
2021/03/18 08:26:43;;;;;;;1.65;1.25;;;8.90;50.00;;;;;;5018388;28;20404;-73
2021/03/18 08:29:18;;;;;;;2.55;1.50;;;9.20;49.60;;;;;;5019051;28;20419;-73
2021/03/18 08:31:46;;;;;;;3.22;1.55;;;;;;;;;;5020415;28;20422;-73
2021/03/18 08:34:12;;;;;;;2.97;1.83;;;9.40;48.00;;;;;;5017710;28;20406;-73
2021/03/18 08:36:41;;;;;;;3.17;1.67;;;;;;;;;;5013507;28;20473;-73
2021/03/18 08:39:10;;;;;;;2.70;1.60;;;9.90;49.70;;;;;;5019520;28;20476;-72
2021/03/18 08:41:38;;;;;;;3.10;1.60;;;10.40;50.00;;;;;;5019435;28;20407;-73
2021/03/18 08:44:22;;;;;;;2.17;1.33;;;;;;;;;;5017956;28;20415;-72
2021/03/18 08:46:51;;;;;;;2.20;1.55;;;10.70;45.60;;;;;;5019975;28;20448;-72
2021/03/18 08:49:32;;;;;;;2.90;1.58;;;10.90;46.10;;;;;;5019600;28;20444;-73
2021/03/18 08:52:00;;;;;;;2.67;1.83;;;10.40;48.10;;;;;;5019008;28;21064;-73
2021/03/18 08:54:51;;;;;;;2.75;2.00;;;10.20;49.60;;;;;;5017301;28;20936;-72
2021/03/18 08:57:26;;;;;;;2.78;2.10;;;9.90;49.60;;;;;;5018989;28;20448;-73
2021/03/18 08:59:54;;;;;;;2.45;1.95;;;9.60;51.00;;;;;;5020725;28;20735;-73
2021/03/18 09:02:28;;;;;;;3.83;2.07;;;9.60;53.80;;;;;;5019964;28;20980;-74
2021/03/18 09:04:54;;;;;;;3.75;1.80;;;9.70;53.20;;;;;;5018942;28;20419;-73
2021/03/18 09:07:22;;;;;;;2.85;1.80;;;9.70;55.20;;;;;;5018502;28;20393;-73
2021/03/18 09:09:59;;;;;;;3.55;1.85;;;9.80;52.80;;;;;;5017231;28;20403;-73
2021/03/18 09:12:33;;;;;;;3.70;1.73;;;9.60;53.90;;;;;;5016544;28;20409;-73
2021/03/18 09:15:12;;;;;;;4.35;1.80;;;9.50;54.20;;;;;;5018191;28;20395;-73
2021/03/18 09:17:39;;;;;;;2.77;1.40;;;9.90;54.20;;;;;;5017484;28;20479;-73
2021/03/18 09:20:06;;;;;;;3.13;1.73;;;10.00;52.10;;;;;;5019735;28;20530;-73
2021/03/18 09:22:32;;;;;;;2.95;1.75;;;10.00;54.60;;;;;;5016334;28;20411;-73
2021/03/18 09:24:58;;;;;;;2.17;1.70;;;9.90;55.80;;;;;;5017536;28;20814;-73
2021/03/18 09:27:24;;;;;;;2.35;1.60;;;10.10;54.80;;;;;;5017343;28;20568;-73
2021/03/18 09:29:50;;;;;;;2.85;1.90;;;10.20;52.60;;;;;;5015400;28;20487;-73
2021/03/18 09:32:17;;;;;;;2.55;1.88;;;10.50;52.40;;;;;;5016066;28;20408;-74
2021/03/18 09:34:45;;;;;;;2.22;1.60;;;10.20;55.40;;;;;;5016730;28;20470;-73
2021/03/18 09:37:12;;;;;;;2.83;2.35;;;10.30;55.10;;;;;;5017947;28;20416;-74
2021/03/18 09:39:46;;;;;;;3.22;1.90;;;10.50;54.80;;;;;;5018118;28;20444;-73
2021/03/18 09:42:15;;;;;;;3.50;2.03;;;10.70;53.70;;;;;;5015510;28;20453;-72
2021/03/18 09:44:42;;;;;;;3.17;1.97;;;11.30;52.30;;;;;;5018237;28;20408;-73
2021/03/18 09:47:09;;;;;;;2.78;1.80;;;11.60;49.60;;;;;;5012384;28;20412;-74
2021/03/18 09:49:38;;;;;;;1.90;1.35;;;11.60;50.30;;;;;;5014515;28;20889;-74
2021/03/18 09:52:06;;;;;;;3.92;1.70;;;11.70;51.00;;;;;;5012352;28;20411;-73
2021/03/18 09:54:32;;;;;;;3.47;2.00;;;11.90;49.50;;;;;;5015912;28;21772;-73
2021/03/18 09:56:59;;;;;;;2.70;1.80;;;11.90;49.70;;;;;;5017970;28;20969;-73
2021/03/18 09:59:25;;;;;;;2.97;1.75;;;11.50;52.00;;;;;;5015183;28;20423;-74
2021/03/18 10:01:52;;;;;;;2.45;1.42;;;11.50;52.10;;;;;;5014863;28;20892;-74
2021/03/18 10:04:21;;;;;;;2.40;1.30;;;11.50;51.40;;;;;;5012428;28;20408;-73
2021/03/18 10:06:52;;;;;;;1.67;1.20;;;11.70;50.70;;;;;;5014003;28;20483;-73
2021/03/18 10:09:21;;;;;;;2.30;1.30;;;12.10;49.20;;;;;;5016037;28;20400;-73
2021/03/18 10:11:49;;;;;;;3.63;1.60;;;12.10;48.80;;;;;;5011287;28;20425;-73
2021/03/18 10:14:17;;;;;;;1.70;1.27;;;11.60;49.80;;;;;;5013934;28;20507;-73
2021/03/18 10:16:44;;;;;;;4.03;1.70;;;11.30;50.40;;;;;;5009654;28;20417;-74
2021/03/18 10:19:11;;;;;;;3.92;1.70;;;11.10;51.00;;;;;;5016860;28;20417;-73
2021/03/18 10:21:38;;;;;;;2.42;1.23;;;11.00;53.10;;;;;;5016341;28;20407;-74
2021/03/18 10:24:09;;;;;;;4.13;1.90;;;11.30;51.20;;;;;;5018234;28;20424;-73
2021/03/18 10:26:35;;;;;;;4.13;1.80;;;11.60;51.00;;;;;;5019573;28;20393;-73
2021/03/18 10:29:03;;;;;;;5.05;2.42;;;11.40;51.60;;;;;;5015698;28;20769;-74
2021/03/18 10:31:29;;;;;;;4.57;2.43;;;10.80;56.00;;;;;;5019023;28;20459;-73
2021/03/18 10:33:55;;;;;;;5.45;2.15;;;10.80;54.40;;;;;;5018370;28;20419;-73
2021/03/18 10:36:33;;;;;;;3.97;1.90;;;10.40;55.30;;;;;;5020655;28;20770;-73
2021/03/18 10:38:59;;;;;;;2.95;1.95;;;10.30;54.10;;;;;;5020453;28;20500;-73
2021/03/18 10:41:27;;;;;;;3.85;2.05;;;10.40;53.90;;;;;;5021072;28;20501;-73
2021/03/18 10:43:53;;;;;;;3.80;2.30;;;10.80;54.10;;;;;;5021798;28;20751;-73
2021/03/18 10:46:27;;;;;;;3.27;2.13;;;10.90;54.90;;;;;;5023008;28;20441;-73
2021/03/18 10:48:54;;;;;;;5.88;2.50;;;10.90;57.10;;;;;;5018972;28;20419;-73
2021/03/18 10:51:20;;;;;;;4.03;2.38;;;11.10;57.70;;;;;;5021585;28;20510;-73
2021/03/18 10:53:47;;;;;;;4.82;2.17;;;11.10;57.30;;;;;;5020241;28;20470;-74
2021/03/18 10:56:17;;;;;;;3.42;1.88;;;10.50;58.40;;;;;;5021067;28;20433;-74
2021/03/18 10:58:45;;;;;;;4.57;1.73;;;10.40;58.00;;;;;;5021652;28;20412;-71
2021/03/18 11:01:13;;;;;;;3.88;2.17;;;10.10;58.60;;;;;;5021359;28;20867;-72
2021/03/18 11:03:40;;;;;;;3.13;1.80;;;10.20;57.20;;;;;;5022459;28;20413;-74
2021/03/18 11:06:14;;;;;;;3.30;1.67;;;10.00;57.10;;;;;;5021938;28;20492;-74
2021/03/18 11:08:42;;;;;;;2.80;1.27;;;10.00;54.80;;;;;;5022078;28;20458;-74
2021/03/18 11:11:13;;;;;;;2.33;1.48;;;9.80;52.60;;;;;;5021153;28;20503;-74
2021/03/18 11:13:42;;;;;;;2.50;1.10;;;9.80;52.20;;;;;;5019911;28;20402;-74
2021/03/18 11:16:10;;;;;;;1.90;1.30;;;10.00;53.00;;;;;;5018868;28;20503;-74
2021/03/18 11:18:39;;;;;;;2.78;1.65;;;10.30;53.60;;;;;;5019807;28;20416;-74
2021/03/18 11:21:17;;;;;;;2.63;1.40;;;10.50;53.90;;;;;;5018273;28;20517;-74
2021/03/18 11:23:43;;;;;;;2.93;1.90;;;10.70;53.30;;;;;;5019609;28;20733;-74
2021/03/18 11:26:09;;;;;;;2.92;1.65;;;11.10;53.60;;;;;;5019534;28;20902;-74
2021/03/18 11:28:36;;;;;;;2.20;1.48;;;11.10;53.70;;;;;;5022017;28;20908;-74
2021/03/18 11:31:12;;;;;;;2.92;1.67;;;11.20;51.90;;;;;;5021166;28;20478;-74
2021/03/18 11:33:38;;;;;;;2.22;1.60;;;11.20;51.90;;;;;;5021571;28;20925;-74
2021/03/18 11:36:06;;;;;;;3.03;1.50;;;10.90;53.10;;;;;;5019872;28;20419;-74
2021/03/18 11:38:32;;;;;;;2.13;1.50;;;11.00;52.80;;;;;;5020832;28;20406;-74
2021/03/18 11:40:58;;;;;;;2.40;1.40;;;11.10;52.00;;;;;;5019051;28;20476;-74
2021/03/18 11:43:25;;;;;;;2.38;1.33;;;10.90;51.20;;;;;;5020358;28;20430;-74
2021/03/18 11:45:51;;;;;;;3.25;1.50;;;10.70;53.20;;;;;;5007084;28;20506;-74
2021/03/18 11:48:18;;;;;;;2.70;1.20;;;10.70;53.90;;;;;;5018717;28;20906;-74
2021/03/18 11:50:44;;;;;;;4.27;1.37;;;10.50;55.30;;;;;;5019524;28;20452;-74
2021/03/18 11:53:10;;;;;;;2.65;1.10;;;10.20;58.50;;;;;;5010646;28;20488;-74
2021/03/18 11:55:37;;;;;;;2.25;1.23;;;10.10;57.10;;;;;;5017309;28;20404;-73
2021/03/18 11:58:04;;;;;;;3.78;1.33;;;10.20;55.60;;;;;;5008493;28;20412;-74
2021/03/18 12:00:32;;;;;;;2.23;1.30;;;10.10;52.80;;;;;;5021290;28;20389;-75
2021/03/18 12:03:00;;;;;;;1.65;1.23;;;10.00;54.10;;;;;;5014840;28;20839;-74
2021/03/18 12:05:27;;;;;;;1.60;1.50;;;10.20;52.90;;;;;;5019215;28;20744;-73
2021/03/18 12:07:53;;;;;;;1.98;1.30;;;10.10;54.50;;;;;;5017288;28;20421;-73
2021/03/18 12:10:20;;;;;;;5.50;1.83;;;10.20;56.30;;;;;;5019105;28;20821;-74
2021/03/18 12:12:46;;;;;;;1.98;1.35;;;10.20;58.00;;;;;;5016468;28;20440;-74
2021/03/18 12:15:13;;;;;;;2.30;1.33;;;10.60;57.30;;;;;;5019809;28;20727;-73
2021/03/18 12:17:39;;;;;;;2.28;1.23;;;11.00;53.90;;;;;;5018840;28;20415;-74
2021/03/18 12:20:09;;;;;;;2.00;1.50;;;11.40;53.60;;;;;;5019394;28;20473;-74
2021/03/18 12:22:36;;;;;;;30.23;17.90;;;11.20;53.50;;;;;;5012840;28;20418;-73
2021/03/18 12:25:03;;;;;;;11.00;6.75;;;11.10;54.50;;;;;;5020729;28;20413;-73
2021/03/18 12:27:29;;;;;;;7.85;7.05;;;11.20;55.30;;;;;;5013925;28;20396;-73
2021/03/18 12:29:55;;;;;;;1.80;1.50;;;11.00;55.10;;;;;;5019164;28;20396;-74
2021/03/18 12:32:22;;;;;;;3.13;1.60;;;10.70;56.10;;;;;;5016557;28;20530;-74
2021/03/18 12:34:48;;;;;;;1.90;1.58;;;10.80;56.30;;;;;;5014187;28;20436;-74
2021/03/18 12:37:15;;;;;;;1.55;1.20;;;10.80;54.40;;;;;;5009239;28;20451;-74
2021/03/18 12:39:42;;;;;;;2.83;1.40;;;10.80;54.70;;;;;;5020647;28;20403;-74
2021/03/18 12:42:12;;;;;;;2.47;1.70;;;10.60;54.90;;;;;;5018418;28;20485;-74
2021/03/18 12:44:39;;;;;;;2.30;1.20;;;9.90;53.90;;;;;;5019245;28;20399;-73
2021/03/18 12:47:05;;;;;;;2.00;1.27;;;9.50;56.90;;;;;;5018123;28;20441;-74
2021/03/18 12:49:31;;;;;;;3.75;1.35;;;9.80;57.70;;;;;;5020710;28;20421;-73
2021/03/18 12:51:57;;;;;;;3.20;1.90;;;10.00;57.50;;;;;;5015984;28;21013;-73
2021/03/18 12:54:23;;;;;;;3.65;2.42;;;10.20;59.20;;;;;;5018162;28;20490;-74
2021/03/18 12:56:50;;;;;;;3.72;3.42;;;9.80;61.70;;;;;;5019258;28;20514;-73
2021/03/18 12:59:17;;;;;;;11.50;10.40;;;9.90;63.00;;;;;;5017165;28;20409;-74
2021/03/18 13:01:43;;;;;;;5.00;3.90;;;9.50;62.50;;;;;;5016007;28;20914;-74
2021/03/18 13:04:09;;;;;;;3.23;1.63;;;9.50;64.10;;;;;;5014415;28;20501;-73
2021/03/18 13:06:35;;;;;;;2.92;2.35;;;9.30;64.00;;;;;;5018709;28;20900;-73
2021/03/18 13:09:01;;;;;;;2.00;1.63;;;9.10;64.20;;;;;;5019713;28;20393;-73
2021/03/18 13:11:27;;;;;;;2.88;2.05;;;9.30;65.80;;;;;;5016263;28;20391;-73